createdAt,value
2023-04-16T00:02:01.639Z,1.53
2023-04-16T00:04:28.799Z,1.60
2023-04-16T00:06:55.733Z,3.50
2023-04-16T00:09:22.742Z,3.23
2023-04-16T00:11:49.600Z,1.63
2023-04-16T00:14:16.434Z,1.93
2023-04-16T00:16:43.272Z,1.70
2023-04-16T00:19:10.844Z,2.30
2023-04-16T00:21:37.844Z,1.87
2023-04-16T00:24:04.749Z,1.53
2023-04-16T00:26:31.620Z,2.53
2023-04-16T00:28:58.410Z,2.33
2023-04-16T00:31:32.832Z,1.97
2023-04-16T00:34:00.419Z,1.53
2023-04-16T00:36:28.512Z,1.17
2023-04-16T00:38:56.560Z,2.67
2023-04-16T00:41:23.795Z,1.10
2023-04-16T00:43:51.784Z,1.87
2023-04-16T00:46:21.312Z,1.50
2023-04-16T00:48:48.915Z,1.93
2023-04-16T00:51:16.441Z,1.10
2023-04-16T00:53:44.483Z,1.40
2023-04-16T00:56:12.634Z,1.43
2023-04-16T00:58:40.219Z,2.13
2023-04-16T01:01:07.138Z,1.30
2023-04-16T01:03:48.353Z,2.20
2023-04-16T01:06:17.850Z,1.47
2023-04-16T01:08:45.611Z,2.10
2023-04-16T01:11:12.429Z,1.40
2023-04-16T01:13:39.906Z,1.40
2023-04-16T01:16:08.382Z,2.33
2023-04-16T01:18:35.765Z,2.10
2023-04-16T01:21:02.908Z,2.97
2023-04-16T01:23:30.114Z,2.27
2023-04-16T01:25:57.129Z,1.30
2023-04-16T01:28:24.162Z,1.67
2023-04-16T01:30:51.008Z,1.63
2023-04-16T01:33:19.118Z,2.07
2023-04-16T01:35:46.073Z,2.23
2023-04-16T01:38:12.921Z,1.70
2023-04-16T01:40:39.757Z,1.33
2023-04-16T01:43:06.809Z,1.30
2023-04-16T01:45:34.496Z,1.40
2023-04-16T01:48:01.714Z,1.90
2023-04-16T01:50:29.835Z,1.73
2023-04-16T01:52:56.757Z,1.63
2023-04-16T01:55:23.650Z,1.20
2023-04-16T01:57:51.006Z,1.30
2023-04-16T02:00:17.981Z,1.67
2023-04-16T02:02:44.964Z,1.73
2023-04-16T02:05:11.922Z,1.47
2023-04-16T02:07:38.793Z,1.07
2023-04-16T02:10:07.229Z,1.77
2023-04-16T02:12:33.999Z,2.13
2023-04-16T02:15:01.058Z,3.03
2023-04-16T02:17:27.863Z,1.47
2023-04-16T02:19:54.654Z,1.77
2023-04-16T02:22:21.431Z,1.53
2023-04-16T02:24:48.344Z,1.20
2023-04-16T02:27:15.130Z,1.07
2023-04-16T02:29:41.954Z,1.20
2023-04-16T02:32:08.980Z,1.57
2023-04-16T02:34:35.892Z,2.00
2023-04-16T02:37:02.764Z,1.37
2023-04-16T02:39:29.564Z,1.00
2023-04-16T02:41:56.482Z,0.67
2023-04-16T02:44:23.292Z,1.40
2023-04-16T02:46:50.261Z,0.70
2023-04-16T02:49:17.125Z,1.10
2023-04-16T02:51:43.963Z,1.27
2023-04-16T02:54:11.097Z,1.67
2023-04-16T02:56:37.912Z,1.23
2023-04-16T02:59:05.213Z,1.63
2023-04-16T03:01:32.645Z,0.60
2023-04-16T03:03:59.817Z,1.17
2023-04-16T03:06:27.141Z,1.10
2023-04-16T03:08:53.974Z,1.13
2023-04-16T03:11:20.915Z,1.67
2023-04-16T03:13:47.771Z,1.63
2023-04-16T03:16:14.701Z,1.23
2023-04-16T03:18:41.574Z,1.53
2023-04-16T03:21:08.429Z,0.80
2023-04-16T03:23:36.379Z,1.10
2023-04-16T03:26:03.300Z,1.30
2023-04-16T03:28:30.212Z,1.33
2023-04-16T03:30:57.118Z,0.83
2023-04-16T03:33:24.062Z,1.33
2023-04-16T03:35:59.745Z,0.93
2023-04-16T03:38:26.767Z,0.97
2023-04-16T03:40:53.663Z,1.07
2023-04-16T03:43:20.725Z,2.03
2023-04-16T03:45:47.723Z,1.40
2023-04-16T03:48:14.585Z,1.83
2023-04-16T03:50:46.199Z,0.63
2023-04-16T03:53:13.073Z,0.83
2023-04-16T03:55:40.783Z,1.03
2023-04-16T03:58:07.711Z,0.77
2023-04-16T04:00:34.665Z,0.63
2023-04-16T04:03:01.708Z,0.60
2023-04-16T04:05:28.644Z,1.47
2023-04-16T04:07:55.498Z,0.63
2023-04-16T04:10:22.321Z,1.83
2023-04-16T04:12:49.128Z,0.80
2023-04-16T04:15:15.972Z,0.40
2023-04-16T04:17:42.865Z,0.73
2023-04-16T04:20:10.297Z,1.37
2023-04-16T04:22:37.226Z,1.53
2023-04-16T04:25:04.195Z,0.53
2023-04-16T04:27:31.058Z,0.60
2023-04-16T04:29:58.353Z,0.80
2023-04-16T04:32:25.665Z,1.97
2023-04-16T04:34:52.617Z,0.90
2023-04-16T04:37:19.526Z,0.67
2023-04-16T04:39:46.661Z,1.03
2023-04-16T04:42:13.627Z,0.73
2023-04-16T04:44:40.557Z,1.03
2023-04-16T04:47:07.394Z,0.60
2023-04-16T04:49:34.261Z,0.90
2023-04-16T04:52:01.796Z,1.67
2023-04-16T04:54:30.639Z,0.83
2023-04-16T04:56:57.628Z,1.23
2023-04-16T04:59:24.795Z,1.27
2023-04-16T05:01:52.057Z,1.33
2023-04-16T05:04:18.901Z,1.63
2023-04-16T05:06:46.300Z,1.13
2023-04-16T05:09:13.159Z,1.50
2023-04-16T05:11:42.015Z,1.37
2023-04-16T05:14:09.050Z,0.70
2023-04-16T05:16:38.840Z,0.97
2023-04-16T05:19:05.924Z,1.47
2023-04-16T05:21:33.771Z,1.53
2023-04-16T05:24:00.668Z,1.03
2023-04-16T05:26:27.511Z,1.70
2023-04-16T05:28:54.325Z,0.73
2023-04-16T05:31:21.579Z,1.13
2023-04-16T05:33:48.460Z,0.93
2023-04-16T05:36:15.239Z,1.00
2023-04-16T05:38:42.047Z,0.40
2023-04-16T05:41:08.886Z,1.40
2023-04-16T05:43:35.699Z,1.00
2023-04-16T05:46:02.545Z,1.07
2023-04-16T05:48:29.386Z,0.90
2023-04-16T05:50:56.200Z,1.20
2023-04-16T05:53:23.892Z,0.30
2023-04-16T05:55:50.921Z,1.37
2023-04-16T05:58:17.719Z,1.37
2023-04-16T06:00:44.772Z,0.83
2023-04-16T06:03:11.785Z,0.67
2023-04-16T06:05:38.920Z,0.60
2023-04-16T06:08:05.773Z,1.63
2023-04-16T06:10:32.675Z,0.80
2023-04-16T06:12:59.518Z,0.70
2023-04-16T06:15:26.356Z,1.17
2023-04-16T06:17:53.203Z,1.17
2023-04-16T06:20:20.068Z,0.57
2023-04-16T06:22:46.966Z,1.03
2023-04-16T06:25:14.800Z,1.00
2023-04-16T06:27:42.495Z,0.50
2023-04-16T06:30:13.583Z,0.80
2023-04-16T06:32:41.029Z,0.83
2023-04-16T06:35:08.434Z,0.40
2023-04-16T06:37:35.609Z,0.80
2023-04-16T06:40:02.584Z,0.83
2023-04-16T06:42:31.077Z,1.50
2023-04-16T06:44:57.983Z,1.47
2023-04-16T06:47:24.904Z,1.00
2023-04-16T06:49:51.781Z,0.87
2023-04-16T06:52:18.739Z,0.70
2023-04-16T06:54:45.768Z,0.70
2023-04-16T06:57:12.646Z,0.93
2023-04-16T06:59:39.697Z,1.20
2023-04-16T07:02:08.814Z,1.40
2023-04-16T07:04:35.915Z,1.47
2023-04-16T07:07:02.843Z,0.63
2023-04-16T07:09:29.812Z,1.17
2023-04-16T07:11:56.800Z,0.50
2023-04-16T07:14:23.708Z,0.80
2023-04-16T07:16:50.768Z,0.70
2023-04-16T07:19:17.652Z,1.13
2023-04-16T07:21:44.675Z,1.30
2023-04-16T07:24:11.811Z,0.33
2023-04-16T07:26:38.607Z,1.47
2023-04-16T07:29:05.522Z,0.70
2023-04-16T07:31:32.661Z,1.10
2023-04-16T07:33:59.697Z,1.13
2023-04-16T07:36:28.429Z,1.00
2023-04-16T07:38:56.361Z,0.60
2023-04-16T07:41:23.466Z,0.93
2023-04-16T07:43:50.430Z,0.50
2023-04-16T07:46:17.417Z,1.17
2023-04-16T07:48:44.386Z,0.57
2023-04-16T07:51:11.468Z,1.00
2023-04-16T07:53:38.371Z,1.37
2023-04-16T07:56:05.571Z,0.70
2023-04-16T07:58:32.436Z,0.60
2023-04-16T08:00:59.701Z,0.40
2023-04-16T08:03:26.853Z,1.03
2023-04-16T08:05:53.906Z,0.73
2023-04-16T08:08:20.886Z,1.20
2023-04-16T08:10:47.876Z,1.03
2023-04-16T08:13:14.720Z,0.50
2023-04-16T08:15:41.837Z,1.50
2023-04-16T08:18:12.989Z,0.50
2023-04-16T08:20:39.929Z,0.73
2023-04-16T08:23:06.769Z,1.03
2023-04-16T08:25:33.613Z,1.10
2023-04-16T08:28:00.454Z,1.03
2023-04-16T08:30:27.476Z,0.50
2023-04-16T08:32:54.470Z,1.07
2023-04-16T08:35:21.392Z,0.40
2023-04-16T08:37:48.266Z,0.53
2023-04-16T08:40:15.137Z,0.90
2023-04-16T08:42:58.483Z,1.00
2023-04-16T08:45:27.248Z,0.80
2023-04-16T08:47:54.344Z,0.43
2023-04-16T08:50:26.196Z,0.60
2023-04-16T08:52:58.231Z,1.00
2023-04-16T08:55:40.687Z,1.03
2023-04-16T08:58:19.856Z,0.77
2023-04-16T09:00:48.523Z,1.00
2023-04-16T09:03:15.812Z,0.70
2023-04-16T09:05:43.950Z,0.60
2023-04-16T09:08:10.848Z,0.97
2023-04-16T09:10:37.788Z,0.53
2023-04-16T09:13:04.661Z,0.93
2023-04-16T09:15:33.997Z,0.40
2023-04-16T09:18:02.100Z,1.13
2023-04-16T09:20:28.993Z,0.70
2023-04-16T09:22:57.612Z,0.53
2023-04-16T09:25:25.615Z,0.93
2023-04-16T09:27:52.739Z,0.53
2023-04-16T09:30:28.661Z,0.70
2023-04-16T09:33:22.288Z,0.70
2023-04-16T09:35:52.008Z,0.40
2023-04-16T09:38:20.193Z,0.60
2023-04-16T09:40:50.297Z,0.57
2023-04-16T09:43:18.211Z,0.80
2023-04-16T09:45:53.457Z,0.60
2023-04-16T09:48:33.986Z,0.80
2023-04-16T09:51:01.556Z,0.80
2023-04-16T09:53:30.208Z,0.57
2023-04-16T09:56:02.477Z,1.23
2023-04-16T09:58:29.787Z,0.60
2023-04-16T10:01:03.478Z,1.00
2023-04-16T10:03:35.051Z,0.80
2023-04-16T10:06:10.164Z,0.60
2023-04-16T10:08:36.968Z,1.30
2023-04-16T10:11:03.897Z,0.50
2023-04-16T10:13:31.781Z,0.83
2023-04-16T10:15:58.989Z,0.60
2023-04-16T10:18:26.333Z,0.43
2023-04-16T10:20:53.356Z,0.73
2023-04-16T10:23:21.857Z,0.47
2023-04-16T10:25:56.409Z,0.70
2023-04-16T10:28:25.157Z,0.50
2023-04-16T10:30:53.386Z,0.43
2023-04-16T10:33:26.117Z,1.10
2023-04-16T10:36:07.995Z,1.43
2023-04-16T10:38:37.685Z,0.40
2023-04-16T10:41:05.952Z,0.80
2023-04-16T10:43:41.071Z,0.80
2023-04-16T10:46:24.123Z,0.53
2023-04-16T10:48:53.951Z,0.30
2023-04-16T10:51:32.956Z,0.30
2023-04-16T10:54:08.722Z,1.00
2023-04-16T10:56:37.002Z,0.40
2023-04-16T10:59:10.427Z,1.60
2023-04-16T11:01:42.575Z,0.60
2023-04-16T11:04:21.905Z,0.30
2023-04-16T11:07:15.638Z,0.80
2023-04-16T11:10:02.496Z,0.50
2023-04-16T11:12:29.363Z,0.60
2023-04-16T11:15:06.307Z,0.30
2023-04-16T11:17:40.275Z,0.63
2023-04-16T11:20:21.375Z,0.27
2023-04-16T11:22:53.788Z,0.63
2023-04-16T11:25:22.107Z,0.30
2023-04-16T11:27:49.731Z,0.40
2023-04-16T11:30:17.720Z,0.43
2023-04-16T11:32:45.302Z,0.20
2023-04-16T11:35:19.364Z,0.40
2023-04-16T11:37:48.434Z,0.40
2023-04-16T11:40:15.454Z,0.30
2023-04-16T11:42:42.818Z,0.33
2023-04-16T11:45:11.942Z,0.10
2023-04-16T11:47:53.401Z,0.30
2023-04-16T11:50:25.111Z,0.40
2023-04-16T11:52:53.458Z,0.20
2023-04-16T11:55:21.172Z,0.30
2023-04-16T11:57:48.257Z,0.30
2023-04-16T12:00:15.900Z,0.30
2023-04-16T12:02:46.913Z,0.37
2023-04-16T12:05:35.107Z,0.60
2023-04-16T12:08:09.640Z,0.20
2023-04-16T12:10:38.618Z,0.30
2023-04-16T12:13:16.153Z,0.30
2023-04-16T12:15:50.307Z,0.30
2023-04-16T12:18:18.046Z,0.40
2023-04-16T12:20:45.792Z,0.43
2023-04-16T12:23:28.582Z,0.60
2023-04-16T12:25:56.258Z,0.50
2023-04-16T12:28:34.354Z,0.50
2023-04-16T12:31:02.063Z,0.60
2023-04-16T12:33:29.681Z,0.40
2023-04-16T12:35:56.887Z,0.27
2023-04-16T12:38:24.683Z,0.60
2023-04-16T12:40:51.972Z,0.60
2023-04-16T12:43:19.838Z,0.57
2023-04-16T12:45:46.877Z,0.50
2023-04-16T12:48:13.707Z,0.77
2023-04-16T12:50:40.552Z,0.20
2023-04-16T12:53:07.374Z,0.40
2023-04-16T12:55:34.266Z,0.43
2023-04-16T12:58:01.056Z,0.20
2023-04-16T13:00:27.967Z,0.40
2023-04-16T13:02:54.931Z,0.53
2023-04-16T13:05:21.848Z,0.23
2023-04-16T13:07:48.740Z,0.40
2023-04-16T13:10:16.716Z,0.60
2023-04-16T13:12:43.661Z,0.50
2023-04-16T13:15:11.122Z,0.40
2023-04-16T13:17:38.024Z,0.83
2023-04-16T13:20:05.298Z,0.20
2023-04-16T13:22:32.179Z,0.37
2023-04-16T13:24:59.048Z,0.37
2023-04-16T13:27:26.227Z,0.40
2023-04-16T13:29:53.153Z,0.27
2023-04-16T13:32:20.128Z,0.20
2023-04-16T13:34:47.225Z,0.20
2023-04-16T13:37:14.269Z,0.30
2023-04-16T13:39:41.351Z,0.23
2023-04-16T13:42:08.351Z,0.20
2023-04-16T13:44:35.246Z,0.20
2023-04-16T13:47:02.120Z,0.07
2023-04-16T13:49:29.129Z,0.20
2023-04-16T13:51:56.071Z,0.10
2023-04-16T13:54:23.000Z,0.40
2023-04-16T13:56:50.926Z,0.30
2023-04-16T13:59:18.294Z,0.20
2023-04-16T14:01:45.156Z,0.20
2023-04-16T14:04:12.083Z,0.33
2023-04-16T14:06:38.914Z,0.17
2023-04-16T14:09:06.027Z,0.60
2023-04-16T14:11:32.925Z,0.40
2023-04-16T14:13:59.797Z,0.20
2023-04-16T14:16:27.502Z,0.40
2023-04-16T14:18:54.463Z,0.33
2023-04-16T14:21:21.378Z,0.27
2023-04-16T14:23:48.225Z,0.30
2023-04-16T14:26:15.080Z,0.60
2023-04-16T14:28:42.123Z,0.40
2023-04-16T14:31:09.056Z,0.30
2023-04-16T14:33:35.948Z,0.30
2023-04-16T14:36:03.577Z,0.40
2023-04-16T14:38:31.358Z,0.20
2023-04-16T14:41:03.592Z,0.30
2023-04-16T14:43:31.002Z,0.47
2023-04-16T14:45:58.988Z,0.30
2023-04-16T14:48:26.126Z,0.30
2023-04-16T14:50:54.003Z,0.20
2023-04-16T14:53:23.018Z,0.50
2023-04-16T14:55:49.971Z,0.27
2023-04-16T14:58:16.724Z,0.40
2023-04-16T15:00:43.627Z,0.83
2023-04-16T15:03:11.175Z,0.40
2023-04-16T15:05:38.979Z,0.40
2023-04-16T15:08:06.158Z,0.20
2023-04-16T15:10:33.155Z,0.13
2023-04-16T15:12:59.997Z,0.30
2023-04-16T15:15:26.840Z,0.33
2023-04-16T15:17:53.733Z,0.40
2023-04-16T15:20:20.798Z,0.30
2023-04-16T15:22:47.765Z,0.37
2023-04-16T15:25:14.664Z,0.33
2023-04-16T15:27:41.489Z,0.20
2023-04-16T15:30:08.914Z,0.50
2023-04-16T15:32:35.939Z,0.40
2023-04-16T15:35:05.017Z,0.20
2023-04-16T15:37:32.072Z,0.40
2023-04-16T15:39:58.995Z,0.37
2023-04-16T15:42:25.954Z,0.60
2023-04-16T15:44:52.850Z,0.20
2023-04-16T15:47:19.803Z,0.23
2023-04-16T15:49:46.586Z,0.40
2023-04-16T15:52:13.627Z,0.30
2023-04-16T15:54:41.017Z,0.53
2023-04-16T15:57:07.917Z,0.30
2023-04-16T15:59:34.829Z,0.40
2023-04-16T16:02:02.012Z,0.47
2023-04-16T16:04:29.203Z,0.20
2023-04-16T16:06:56.702Z,0.20
2023-04-16T16:09:26.823Z,0.20
2023-04-16T16:11:54.500Z,0.40
2023-04-16T16:14:22.360Z,0.67
2023-04-16T16:16:49.399Z,0.20
2023-04-16T16:19:16.676Z,0.93
2023-04-16T16:21:43.544Z,0.30
2023-04-16T16:24:10.478Z,0.80
2023-04-16T16:26:37.583Z,0.30
2023-04-16T16:29:04.747Z,0.33
2023-04-16T16:31:31.731Z,0.30
2023-04-16T16:33:58.656Z,0.40
2023-04-16T16:36:26.604Z,0.30
2023-04-16T16:38:53.592Z,0.33
2023-04-16T16:41:20.637Z,0.50
2023-04-16T16:43:47.459Z,0.30
2023-04-16T16:46:14.345Z,0.30
2023-04-16T16:48:41.247Z,0.87
2023-04-16T16:51:10.765Z,0.87
2023-04-16T16:53:37.676Z,0.47
2023-04-16T16:56:04.735Z,0.50
2023-04-16T16:58:31.593Z,0.20
2023-04-16T17:00:58.804Z,0.60
2023-04-16T17:03:25.797Z,0.40
2023-04-16T17:05:52.761Z,0.37
2023-04-16T17:08:19.665Z,0.40
2023-04-16T17:10:46.570Z,0.60
2023-04-16T17:13:15.208Z,0.63
2023-04-16T17:15:42.207Z,0.33
2023-04-16T17:18:09.037Z,0.30
2023-04-16T17:20:35.885Z,0.30
2023-04-16T17:23:03.050Z,0.30
2023-04-16T17:25:30.110Z,0.60
2023-04-16T17:27:56.944Z,0.53
2023-04-16T17:30:25.977Z,0.50
2023-04-16T17:32:52.902Z,0.40
2023-04-16T17:35:19.787Z,0.63
2023-04-16T17:37:46.603Z,0.43
2023-04-16T17:40:15.578Z,0.30
2023-04-16T17:42:42.699Z,0.37
2023-04-16T17:45:10.069Z,0.63
2023-04-16T17:47:37.570Z,0.30
2023-04-16T17:50:05.623Z,0.43
2023-04-16T17:52:32.501Z,0.40
2023-04-16T17:55:02.260Z,0.50
2023-04-16T17:57:29.475Z,0.40
2023-04-16T17:59:56.644Z,0.87
2023-04-16T18:02:23.727Z,0.70
2023-04-16T18:04:51.621Z,0.50
2023-04-16T18:07:18.785Z,0.73
2023-04-16T18:09:45.592Z,1.17
2023-04-16T18:12:12.459Z,0.60
2023-04-16T18:14:40.693Z,1.03
2023-04-16T18:17:07.672Z,0.87
2023-04-16T18:19:35.572Z,1.40
2023-04-16T18:22:02.600Z,1.23
2023-04-16T18:24:29.484Z,1.47
2023-04-16T18:26:56.820Z,1.50
2023-04-16T18:29:25.258Z,0.80
2023-04-16T18:31:52.555Z,1.00
2023-04-16T18:34:19.522Z,0.60
2023-04-16T18:36:46.869Z,0.40
2023-04-16T18:39:13.768Z,1.17
2023-04-16T18:41:41.682Z,0.60
2023-04-16T18:44:10.769Z,0.40
2023-04-16T18:46:37.676Z,0.93
2023-04-16T18:49:04.590Z,0.60
2023-04-16T18:51:31.693Z,1.03
2023-04-16T18:53:58.776Z,1.47
2023-04-16T18:56:25.883Z,0.57
2023-04-16T18:58:52.776Z,0.77
2023-04-16T19:01:19.648Z,0.60
2023-04-16T19:03:46.555Z,0.30
2023-04-16T19:06:13.428Z,0.90
2023-04-16T19:08:40.286Z,0.60
2023-04-16T19:11:07.075Z,1.53
2023-04-16T19:13:33.935Z,0.60
2023-04-16T19:16:02.241Z,1.00
2023-04-16T19:18:29.235Z,0.70
2023-04-16T19:21:00.674Z,0.80
2023-04-16T19:23:28.110Z,1.30
2023-04-16T19:25:58.463Z,0.67
2023-04-16T19:28:26.297Z,1.10
2023-04-16T19:30:53.967Z,0.40
2023-04-16T19:33:20.957Z,0.60
2023-04-16T19:35:48.087Z,0.67
2023-04-16T19:38:15.006Z,0.60
2023-04-16T19:40:46.681Z,0.47
2023-04-16T19:43:13.967Z,1.50
2023-04-16T19:45:48.152Z,1.77
2023-04-16T19:48:15.014Z,0.97
2023-04-16T19:50:42.704Z,0.50
2023-04-16T19:53:10.620Z,1.00
2023-04-16T19:55:40.046Z,0.30
2023-04-16T19:58:07.413Z,0.40
2023-04-16T20:00:36.428Z,0.70
2023-04-16T20:03:04.625Z,1.30
2023-04-16T20:05:31.600Z,0.50
2023-04-16T20:07:58.480Z,0.83
2023-04-16T20:10:26.422Z,0.43
2023-04-16T20:12:53.396Z,0.60
2023-04-16T20:15:20.336Z,0.50
2023-04-16T20:17:47.291Z,0.73
2023-04-16T20:20:15.863Z,0.60
2023-04-16T20:22:43.727Z,0.70
2023-04-16T20:25:10.749Z,0.73
2023-04-16T20:27:37.708Z,0.40
2023-04-16T20:30:06.121Z,0.70
2023-04-16T20:32:33.269Z,0.30
2023-04-16T20:35:00.316Z,0.40
2023-04-16T20:37:29.103Z,0.60
2023-04-16T20:39:56.392Z,0.90
2023-04-16T20:42:26.335Z,1.00
2023-04-16T20:44:56.499Z,0.47
2023-04-16T20:47:23.815Z,0.43
2023-04-16T20:49:52.733Z,0.27
2023-04-16T20:52:19.832Z,0.40
2023-04-16T20:54:47.814Z,0.63
2023-04-16T20:57:14.678Z,0.87
2023-04-16T20:59:41.620Z,0.70
2023-04-16T21:02:08.669Z,1.03
2023-04-16T21:04:36.007Z,0.37
2023-04-16T21:07:04.246Z,0.60
2023-04-16T21:09:31.660Z,1.03
2023-04-16T21:11:58.572Z,0.60
2023-04-16T21:14:25.487Z,0.83
2023-04-16T21:16:52.422Z,1.07
2023-04-16T21:19:19.257Z,0.40
2023-04-16T21:21:46.623Z,0.73
2023-04-16T21:24:13.706Z,0.30
2023-04-16T21:26:40.706Z,0.67
2023-04-16T21:29:07.567Z,0.60
2023-04-16T21:31:34.468Z,1.13
2023-04-16T21:34:01.360Z,0.57
2023-04-16T21:36:29.188Z,0.93
2023-04-16T21:38:56.048Z,0.33
2023-04-16T21:41:22.931Z,0.50
2023-04-16T21:43:49.729Z,0.47
2023-04-16T21:46:16.643Z,0.47
2023-04-16T21:48:43.548Z,0.33
2023-04-16T21:51:10.617Z,0.30
2023-04-16T21:53:38.767Z,1.00
2023-04-16T21:56:06.538Z,0.80
2023-04-16T21:58:33.406Z,0.30
2023-04-16T22:01:00.437Z,0.60
2023-04-16T22:03:28.094Z,0.47
2023-04-16T22:06:02.348Z,0.73
2023-04-16T22:08:30.229Z,0.67
2023-04-16T22:11:02.528Z,0.77
2023-04-16T22:13:32.457Z,0.40
2023-04-16T22:16:03.341Z,0.33
2023-04-16T22:18:33.158Z,0.83
2023-04-16T22:21:00.521Z,0.60
2023-04-16T22:23:27.378Z,0.40
2023-04-16T22:25:56.782Z,0.50
2023-04-16T22:28:23.912Z,0.27
2023-04-16T22:30:51.241Z,0.90
2023-04-16T22:33:18.260Z,0.70
2023-04-16T22:35:45.626Z,0.77
2023-04-16T22:38:12.558Z,0.30
2023-04-16T22:40:39.397Z,0.30
2023-04-16T22:43:06.293Z,0.50
2023-04-16T22:45:33.085Z,0.30
2023-04-16T22:47:59.991Z,0.87
2023-04-16T22:50:27.199Z,0.47
2023-04-16T22:52:54.024Z,0.40
2023-04-16T22:55:21.001Z,0.27
2023-04-16T22:57:47.925Z,0.30
2023-04-16T23:00:18.046Z,0.43
2023-04-16T23:02:45.450Z,0.40
2023-04-16T23:05:12.567Z,0.37
2023-04-16T23:07:39.489Z,0.50
2023-04-16T23:10:08.542Z,0.30
2023-04-16T23:12:37.420Z,0.63
2023-04-16T23:15:06.723Z,0.57
2023-04-16T23:17:33.984Z,0.30
2023-04-16T23:20:01.024Z,0.60
2023-04-16T23:22:28.116Z,0.20
2023-04-16T23:24:55.098Z,0.40
2023-04-16T23:27:21.939Z,0.20
2023-04-16T23:29:48.881Z,0.43
2023-04-16T23:32:15.862Z,0.87
2023-04-16T23:34:42.772Z,0.40
2023-04-16T23:37:09.706Z,0.50
2023-04-16T23:39:36.630Z,0.37
2023-04-16T23:42:03.680Z,0.33
2023-04-16T23:44:30.705Z,0.30
2023-04-16T23:46:57.621Z,0.47
2023-04-16T23:49:24.754Z,0.50
2023-04-16T23:51:51.770Z,1.70
2023-04-16T23:54:18.755Z,0.40
2023-04-16T23:56:45.608Z,0.33
2023-04-16T23:59:12.880Z,0.80
